Terminal Aerodrome Forecast
Issued by NWS Shreveport, LA

Home | Current Version | Previous Version | Text Only | Print | Product List | Glossary On
Versions: 1 2 3 4 5 6 7 8 9 10 11 12 13 14
838
FTUS44 KSHV 231122
TAFGGG
TAF
KGGG 231122Z 2312/2412 00000KT P6SM SKC
     FM231500 01005KT P6SM BKN050 BKN180 BKN250
     FM231900 05005KT P6SM VCTS BKN050CB BKN250
     FM240200 06004KT P6SM BKN050 BKN250=

USA.gov is the U.S. government's official web portal to all federal, state and local government web resources and services.